createdAt,value
2022-12-16T00:02:01.921Z,2.85
2022-12-16T00:07:03.427Z,2.70
2022-12-16T00:12:05.328Z,2.70
2022-12-16T00:17:06.992Z,2.38
2022-12-16T00:22:08.527Z,2.80
2022-12-16T00:27:10.059Z,3.40
2022-12-16T00:32:11.523Z,3.40
2022-12-16T00:37:13.433Z,3.53
2022-12-16T00:42:14.944Z,4.25
2022-12-16T00:47:16.437Z,3.70
2022-12-16T00:52:17.896Z,3.00
2022-12-16T00:57:19.401Z,2.90
2022-12-16T01:02:21.066Z,2.50
2022-12-16T01:07:22.701Z,2.63
2022-12-16T01:12:24.148Z,2.22
2022-12-16T01:17:26.081Z,2.72
2022-12-16T01:22:30.658Z,2.05
2022-12-16T01:27:32.144Z,2.30
2022-12-16T01:32:33.676Z,2.20
2022-12-16T01:37:35.196Z,2.88
2022-12-16T01:42:36.704Z,2.20
2022-12-16T01:47:38.411Z,2.08
2022-12-16T01:52:47.372Z,2.05
2022-12-16T01:57:55.270Z,2.13
2022-12-16T02:02:58.213Z,2.08
2022-12-16T02:08:05.744Z,2.20
2022-12-16T02:13:21.711Z,2.10
2022-12-16T02:19:03.639Z,2.45
2022-12-16T02:24:29.858Z,2.30
2022-12-16T02:30:19.511Z,2.22
2022-12-16T02:35:26.924Z,2.50
2022-12-16T02:40:53.304Z,2.10
2022-12-16T02:45:56.405Z,2.55
2022-12-16T02:50:57.993Z,2.58
2022-12-16T02:56:33.016Z,2.50
2022-12-16T03:02:06.965Z,2.45
2022-12-16T03:07:13.400Z,2.88
2022-12-16T03:12:18.034Z,2.70
2022-12-16T03:17:21.596Z,2.90
2022-12-16T03:22:28.173Z,2.72
2022-12-16T03:27:37.854Z,2.90
2022-12-16T03:32:48.594Z,2.85
2022-12-16T03:37:53.806Z,3.08
2022-12-16T03:42:57.066Z,2.83
2022-12-16T03:48:00.036Z,2.42
2022-12-16T03:53:01.834Z,2.78
2022-12-16T03:58:03.472Z,2.55
2022-12-16T04:03:05.087Z,2.55
2022-12-16T04:08:06.725Z,2.90
2022-12-16T04:13:28.882Z,3.08
2022-12-16T04:18:49.033Z,3.45
2022-12-16T04:24:14.066Z,3.20
2022-12-16T04:29:15.558Z,2.80
2022-12-16T04:34:26.055Z,3.03
2022-12-16T04:39:46.424Z,3.33
2022-12-16T04:45:06.548Z,2.88
2022-12-16T04:50:26.778Z,3.63
2022-12-16T04:55:47.093Z,2.97
2022-12-16T05:01:08.640Z,3.28
2022-12-16T05:06:28.887Z,4.07
2022-12-16T05:11:49.024Z,5.60
2022-12-16T05:17:08.881Z,4.43
2022-12-16T05:22:29.212Z,6.18
2022-12-16T05:27:50.021Z,7.20
2022-12-16T05:33:09.858Z,7.03
2022-12-16T05:38:29.732Z,7.72
2022-12-16T05:43:49.982Z,7.75
2022-12-16T05:49:10.224Z,6.63
2022-12-16T05:54:30.076Z,5.95
2022-12-16T05:59:50.380Z,6.68
2022-12-16T06:05:10.744Z,6.88
2022-12-16T06:10:30.491Z,7.35
2022-12-16T06:15:50.422Z,9.15
2022-12-16T06:21:10.517Z,9.50
2022-12-16T06:26:30.800Z,9.80
2022-12-16T06:31:51.236Z,8.18
2022-12-16T06:37:11.569Z,7.53
2022-12-16T06:42:31.406Z,8.60
2022-12-16T06:47:51.804Z,8.07
2022-12-16T06:53:11.500Z,6.32
2022-12-16T06:58:31.924Z,6.38
2022-12-16T07:03:52.269Z,6.38
2022-12-16T07:09:12.569Z,5.60
2022-12-16T07:14:32.483Z,5.65
2022-12-16T07:19:52.879Z,5.72
2022-12-16T07:25:13.115Z,6.45
2022-12-16T07:30:33.248Z,10.00
2022-12-16T07:35:53.652Z,6.90
2022-12-16T07:41:14.137Z,6.85
2022-12-16T07:46:34.003Z,8.25
2022-12-16T07:51:54.144Z,9.73
2022-12-16T07:57:15.896Z,8.40
2022-12-16T08:02:36.444Z,8.85
2022-12-16T08:07:58.887Z,8.45
2022-12-16T08:13:25.341Z,10.48
2022-12-16T08:18:46.139Z,8.05
2022-12-16T08:24:06.224Z,8.00
2022-12-16T08:29:43.797Z,6.88
2022-12-16T08:35:04.623Z,7.85
2022-12-16T08:40:35.180Z,6.45
2022-12-16T08:45:56.101Z,6.43
2022-12-16T08:51:20.601Z,6.97
2022-12-16T08:56:40.938Z,7.10
2022-12-16T09:02:03.997Z,7.72
2022-12-16T09:07:24.134Z,9.02
2022-12-16T09:12:44.008Z,12.75
2022-12-16T09:18:04.325Z,10.18
2022-12-16T09:23:24.200Z,10.07
2022-12-16T09:28:44.460Z,10.02
2022-12-16T09:34:04.877Z,9.40
2022-12-16T09:39:25.265Z,6.85
2022-12-16T09:44:54.078Z,7.22
2022-12-16T09:50:14.621Z,6.55
2022-12-16T09:55:57.244Z,6.57
2022-12-16T10:01:18.573Z,6.75
2022-12-16T10:06:44.628Z,6.72
2022-12-16T10:12:34.867Z,6.00
2022-12-16T10:17:59.094Z,5.43
2022-12-16T10:23:19.032Z,5.07
2022-12-16T10:28:49.992Z,4.97
2022-12-16T10:34:11.057Z,4.88
2022-12-16T10:39:40.086Z,4.68
2022-12-16T10:45:13.083Z,4.65
2022-12-16T10:50:33.890Z,4.53
2022-12-16T10:56:02.827Z,4.47
2022-12-16T11:01:41.032Z,5.00
2022-12-16T11:07:01.146Z,6.75
2022-12-16T11:12:33.154Z,8.45
2022-12-16T11:17:53.318Z,9.30
2022-12-16T11:23:32.727Z,13.35
2022-12-16T11:28:53.235Z,15.65
2022-12-16T11:34:13.948Z,15.30
2022-12-16T11:39:37.729Z,14.68
2022-12-16T11:45:00.704Z,13.68
2022-12-16T11:50:21.057Z,12.35
2022-12-16T12:01:45.427Z,15.23
2022-12-16T12:07:26.279Z,15.25
2022-12-16T12:12:58.854Z,14.23
2022-12-16T12:18:21.768Z,11.85
2022-12-16T12:24:04.370Z,13.32
2022-12-16T12:29:38.264Z,11.98
2022-12-16T12:35:07.878Z,11.68
2022-12-16T12:40:52.528Z,10.75
2022-12-16T12:47:01.743Z,10.75
2022-12-16T12:52:47.071Z,8.50
2022-12-16T12:58:25.590Z,7.00
2022-12-16T13:04:04.178Z,5.68
2022-12-16T13:10:02.287Z,5.95
2022-12-16T13:15:27.383Z,4.63
2022-12-16T13:20:55.056Z,4.47
2022-12-16T13:26:23.993Z,4.35
2022-12-16T13:31:47.103Z,4.50
2022-12-16T13:37:14.870Z,3.97
2022-12-16T13:43:13.799Z,4.10
2022-12-16T13:48:58.250Z,4.30
2022-12-16T13:54:19.059Z,4.50
2022-12-16T13:59:42.964Z,4.30
2022-12-16T14:05:06.992Z,4.32
2022-12-16T14:10:57.988Z,4.50
2022-12-16T14:16:55.609Z,4.65
2022-12-16T14:22:34.872Z,4.88
2022-12-16T14:27:59.593Z,5.30
2022-12-16T14:33:19.922Z,4.78
2022-12-16T14:38:45.082Z,4.88
2022-12-16T14:44:05.348Z,5.50
2022-12-16T14:49:36.729Z,5.18
2022-12-16T14:55:00.518Z,5.45
2022-12-16T15:00:40.884Z,5.57
2022-12-16T15:06:02.242Z,7.38
2022-12-16T15:11:27.639Z,6.63
2022-12-16T15:16:52.534Z,6.35
2022-12-16T15:22:12.937Z,5.97
2022-12-16T15:27:52.586Z,6.32
2022-12-16T15:33:12.366Z,6.55
2022-12-16T15:38:35.264Z,7.72
2022-12-16T15:43:58.189Z,9.73
2022-12-16T15:49:18.652Z,9.20
2022-12-16T15:54:43.628Z,9.48
2022-12-16T16:00:18.505Z,9.77
2022-12-16T16:05:42.522Z,10.05
2022-12-16T16:11:03.436Z,10.00
2022-12-16T16:16:24.199Z,12.30
2022-12-16T16:21:44.728Z,12.38
2022-12-16T16:27:05.057Z,12.52
2022-12-16T16:32:27.485Z,12.07
2022-12-16T16:38:04.023Z,12.05
2022-12-16T16:43:23.845Z,13.48
2022-12-16T16:48:47.175Z,19.35
2022-12-16T16:54:07.595Z,17.45
2022-12-16T16:59:30.819Z,15.65
2022-12-16T17:04:50.698Z,14.77
2022-12-16T17:10:10.737Z,15.90
2022-12-16T17:15:35.130Z,17.95
2022-12-16T17:20:55.396Z,18.40
2022-12-16T17:26:15.654Z,20.10
2022-12-16T17:31:35.681Z,19.30
2022-12-16T17:36:55.890Z,20.35
2022-12-16T17:42:16.358Z,21.58
2022-12-16T17:47:37.102Z,22.85
2022-12-16T17:52:57.579Z,22.50
2022-12-16T17:58:18.879Z,22.75
2022-12-16T18:03:40.081Z,23.13
2022-12-16T18:09:00.503Z,23.13
2022-12-16T18:14:20.235Z,24.00
2022-12-16T18:19:41.283Z,22.20
2022-12-16T18:25:01.571Z,31.25
2022-12-16T18:30:21.832Z,29.42
2022-12-16T18:35:41.761Z,27.33
2022-12-16T18:41:01.530Z,25.27
2022-12-16T18:46:21.925Z,22.10
2022-12-16T18:51:42.715Z,23.08
2022-12-16T18:57:02.704Z,28.42
2022-12-16T19:02:23.121Z,27.98
2022-12-16T19:07:43.357Z,39.22
2022-12-16T19:13:03.068Z,46.00
2022-12-16T19:18:23.524Z,45.47
2022-12-16T19:23:43.479Z,46.47
2022-12-16T19:29:04.052Z,41.90
2022-12-16T19:34:24.024Z,40.45
2022-12-16T19:39:44.897Z,47.30
2022-12-16T19:45:05.245Z,46.75
2022-12-16T19:50:25.706Z,45.78
2022-12-16T19:55:45.377Z,41.80
2022-12-16T20:01:06.001Z,46.83
2022-12-16T20:06:28.189Z,42.72
2022-12-16T20:11:48.583Z,36.97
2022-12-16T20:17:09.253Z,38.88
2022-12-16T20:22:29.741Z,42.05
2022-12-16T20:27:49.675Z,48.38
2022-12-16T20:33:09.537Z,50.40
2022-12-16T20:38:29.841Z,54.63
2022-12-16T20:43:49.645Z,57.05
2022-12-16T20:49:09.691Z,51.67
2022-12-16T20:54:30.087Z,46.72
2022-12-16T20:59:49.882Z,47.78
2022-12-16T21:05:09.647Z,47.20
2022-12-16T21:10:29.906Z,50.25
2022-12-16T21:15:49.782Z,45.00
2022-12-16T21:21:13.455Z,43.10
2022-12-16T21:26:33.289Z,40.00
2022-12-16T21:31:53.632Z,37.10
2022-12-16T21:37:13.604Z,34.70
2022-12-16T21:42:36.086Z,38.63
2022-12-16T21:47:57.727Z,39.55
2022-12-16T21:53:18.172Z,43.45
2022-12-16T21:58:38.439Z,44.13
2022-12-16T22:03:58.739Z,46.17
2022-12-16T22:09:18.898Z,46.10
2022-12-16T22:14:39.312Z,47.47
2022-12-16T22:19:59.604Z,44.65
2022-12-16T22:25:19.919Z,45.90
2022-12-16T22:30:40.282Z,42.20
2022-12-16T22:36:00.324Z,37.67
2022-12-16T22:41:20.655Z,40.03
2022-12-16T22:46:40.510Z,43.92
2022-12-16T22:52:00.900Z,43.55
2022-12-16T22:57:21.539Z,38.25
2022-12-16T23:02:41.328Z,34.58
2022-12-16T23:08:01.849Z,37.15
2022-12-16T23:13:21.718Z,32.47
2022-12-16T23:18:42.122Z,32.65
2022-12-16T23:24:02.478Z,36.15
2022-12-16T23:29:22.964Z,37.10
2022-12-16T23:34:46.017Z,41.33
2022-12-16T23:40:06.500Z,40.78
2022-12-16T23:45:26.794Z,38.58
2022-12-16T23:50:46.649Z,39.08
2022-12-16T23:56:06.436Z,37.83
